Tracer — PHAC — position and weather

sailwx.info

Track history (hours):
 
Tides and Currents Weather Stations Pressure Air Temp Water Temp Dewpoint Dewpoint Depression Visibility Wind Speed Wind Dir Waves Ship Positions

Tracer

Last reported at 2016-Dec-05 16:27 UTC. Time now 2016-Dec-06 08:19 UTC.
Position N 49°51' W 003°18'.

Length 101 m; beam 20 m.

Type: Cargo ship. MMSI: 245949000.

Date/timePositionNaut miles runAvg speedWind from/ knotsBaromVisibWave heightAir tempDewpointWater temp
2016-Dec-05 16:27N 49°51' W 003°18'1415.5
2016-Dec-05 15:33N 49°58' W 002°59'4713.8
2016-Dec-05 12:08N 50°10' W 001°48'711.7
2016-Dec-05 11:33N 50°13' W 001°38'5713.2
2016-Dec-05 07:15N 50°28' W 000°12'1115.4
2016-Dec-05 06:33N 50°31' E 000°04'5714.0
2016-Dec-05 02:28N 50°58' E 001°23'1213.2
2016-Dec-05 01:33N 51°07' E 001°37'1414.1
2016-Dec-05 00:33N 51°17' E 001°51'1111.2
2016-Dec-04 23:33N 51°22' E 002°08'1514.6
2016-Dec-04 22:33N 51°23' E 002°31'1414.4
2016-Dec-04 21:33N 51°25' E 002°54'1615.9
2016-Dec-04 20:33N 51°24' E 003°19'1413.9
2016-Dec-04 19:33N 51°24' E 003°42'1312.5
2016-Dec-04 18:33N 51°25' E 004°02'1110.4
2016-Dec-04 17:33N 51°20' E 004°16'4 4.1
2016-Dec-04 16:33N 51°17' E 004°20'1 1.1
2016-Dec-04 15:33N 51°17' E 004°22'1 0.6
2016-Dec-04 14:32N 51°17' E 004°23'0 0.0
2016-Dec-04 13:32N 51°17' E 004°23'0 0.0
2016-Dec-04 12:29N 51°17' E 004°23'0 0.0
2016-Dec-04 11:17N 51°17' E 004°23'0 0.0
2016-Dec-04 10:29N 51°17' E 004°23'0 0.0
2016-Dec-04 09:29N 51°17' E 004°23'0 0.0
2016-Dec-04 08:32N 51°17' E 004°23'0 0.0
2016-Dec-04 07:32N 51°17' E 004°23'0 0.0
2016-Dec-04 06:32N 51°17' E 004°23'0 0.0
2016-Dec-04 05:29N 51°17' E 004°23'0 0.0
2016-Dec-04 04:32N 51°17' E 004°23'0 0.0
2016-Dec-04 03:32N 51°17' E 004°23'0 0.0
2016-Dec-04 02:32N 51°17' E 004°23'0 0.0
2016-Dec-04 01:26N 51°17' E 004°23'0 0.0
2016-Dec-04 00:32N 51°17' E 004°23'0 0.0
2016-Dec-03 23:29N 51°17' E 004°23'0 0.0
2016-Dec-03 22:08N 51°17' E 004°23'0 0.0
2016-Dec-03 21:29N 51°17' E 004°23'0 0.0
2016-Dec-03 20:32N 51°17' E 004°23'0 0.0
2016-Dec-03 19:32N 51°17' E 004°23'0 0.0
2016-Dec-03 18:32N 51°17' E 004°23'0 0.0
2016-Dec-03 17:32N 51°17' E 004°23'0 0.4
2016-Dec-03 16:32N 51°17' E 004°22'0 0.0
2016-Dec-03 15:32N 51°17' E 004°22'0 0.0
2016-Dec-03 14:32N 51°17' E 004°22'0 0.0
2016-Dec-03 13:32N 51°17' E 004°22'0 0.0
2016-Dec-03 12:29N 51°17' E 004°22'0 0.0
2016-Dec-03 11:32N 51°17' E 004°22'0 0.0
2016-Dec-03 10:23N 51°17' E 004°22'0 0.0
2016-Dec-03 09:32N 51°17' E 004°22'2 2.0
2016-Dec-03 08:33N 51°18' E 004°20'3 2.9
2016-Dec-03 07:33N 51°21' E 004°17'0 0.1
2016-Dec-03 06:33N 51°21' E 004°17'5 5.0
2016-Dec-03 05:31N 51°23' E 004°10'8 8.6
2016-Dec-03 04:33N 51°23' E 003°56'1111.5
2016-Dec-03 03:33N 51°25' E 003°38'1110.9
2016-Dec-03 02:34N 51°32' E 003°25'17 4.1
2016-Dec-02 22:24N 51°48' E 003°14'23511.8
2016-Dec-02 02:26N 53°53' E 008°43'910.4
2016-Dec-02 01:33N 53°51' E 008°58'7 6.8
2016-Dec-02 00:33N 53°54' E 009°09'2 1.5
2016-Dec-01 23:33N 53°55' E 009°11'8 8.2
2016-Dec-01 22:33N 54°02' E 009°18'28 5.4
2016-Dec-01 17:17N 54°22' E 009°52'5 7.2
2016-Dec-01 16:33N 54°22' E 010°01'4 4.1
2016-Dec-01 15:33N 54°22' E 010°08'1 1.1
2016-Dec-01 14:33N 54°22' E 010°10'7 7.2
2016-Dec-01 13:33N 54°29' E 010°16'1110.6
2016-Dec-01 12:31N 54°34' E 010°33'1212.5
2016-Dec-01 11:34N 54°35' E 010°53'1111.3
2016-Dec-01 10:34N 54°35' E 011°13'1010.3
2016-Dec-01 09:33N 54°31' E 011°29'1111.1
2016-Dec-01 08:33N 54°26' E 011°46'1110.9
2016-Dec-01 07:32N 54°27' E 012°06'1411.3
2016-Dec-01 06:17N 54°39' E 012°19'911.9
2016-Dec-01 05:33N 54°43' E 012°31'19411.4
2016-Nov-30 12:34N 54°55' E 018°07'1010.1
2016-Nov-30 11:33N 54°55' E 018°25'9 9.3
2016-Nov-30 10:33N 54°53' E 018°40'10 9.6
2016-Nov-30 09:33N 54°48' E 018°54'1010.2
2016-Nov-30 08:33N 54°37' E 018°56'1414.2
2016-Nov-30 07:33N 54°26' E 018°40'2 2.0
2016-Nov-30 06:32N 54°24' E 018°40'0 0.0
2016-Nov-30 05:32N 54°24' E 018°40'0 0.0
2016-Nov-30 04:32N 54°24' E 018°40'0 0.0
2016-Nov-30 03:32N 54°24' E 018°40'0 0.0
2016-Nov-30 02:32N 54°24' E 018°40'0 0.0
2016-Nov-30 01:32N 54°24' E 018°40'0 0.0
2016-Nov-30 00:31N 54°24' E 018°40'0 0.0
2016-Nov-29 23:31N 54°24' E 018°40'0 0.0
2016-Nov-29 22:31N 54°24' E 018°40'0 0.0
2016-Nov-29 21:28N 54°24' E 018°40'0 0.0
2016-Nov-29 20:31N 54°24' E 018°40'0 0.0
2016-Nov-29 19:31N 54°24' E 018°40'0 0.0
2016-Nov-29 18:31N 54°24' E 018°40'0 0.0
2016-Nov-29 17:28N 54°24' E 018°40'0 0.0
2016-Nov-29 16:31N 54°24' E 018°40'0 0.0
2016-Nov-29 15:31N 54°24' E 018°40'0 0.0
2016-Nov-29 14:31N 54°24' E 018°40'0 0.0
2016-Nov-29 13:31N 54°24' E 018°40'0 0.0
2016-Nov-29 12:31N 54°24' E 018°40'0 0.0
2016-Nov-29 11:31N 54°24' E 018°40'0 0.0
2016-Nov-29 10:31N 54°24' E 018°40'0 0.0
2016-Nov-29 09:31N 54°24' E 018°40'0 0.0
2016-Nov-29 08:31N 54°24' E 018°40'0 0.0
2016-Nov-29 07:31N 54°24' E 018°40'0 0.0
2016-Nov-29 06:31N 54°24' E 018°40'0 0.0
2016-Nov-29 05:31N 54°24' E 018°40'0 0.3
2016-Nov-29 04:33N 54°25' E 018°40'9 9.5
2016-Nov-29 03:33N 54°33' E 018°49'1313.3
2016-Nov-29 02:33N 54°44' E 019°00'4 3.6
2016-Nov-29 01:33N 54°47' E 019°04'0 0.1
2016-Nov-29 00:33N 54°47' E 019°04'0 0.3
2016-Nov-28 23:33N 54°47' E 019°04'1 1.5
2016-Nov-28 22:32N 54°48' E 019°02'1 1.2
2016-Nov-28 21:33N 54°49' E 019°00'1 0.8
2016-Nov-28 20:33N 54°48' E 019°00'2 2.4
2016-Nov-28 19:33N 54°49' E 019°04'3 2.3
2016-Nov-28 18:24N 54°50' E 019°08'1 1.3
2016-Nov-28 17:33N 54°51' E 019°07'2 1.2
2016-Nov-28 16:17N 54°52' E 019°04'1 1.3
2016-Nov-28 15:13N 54°51' E 019°02'1 1.3
2016-Nov-28 14:31N 54°51' E 019°00'1 1.1
2016-Nov-28 13:33N 54°50' E 019°01'0 0.5
2016-Nov-28 12:33N 54°49' E 019°00'1 0.7
2016-Nov-28 11:33N 54°50' E 018°60'1 0.7
2016-Nov-28 10:33N 54°50' E 018°59'1 0.7
2016-Nov-28 09:33N 54°50' E 018°58'1 1.0
2016-Nov-28 08:33N 54°51' E 018°57'7 6.8
2016-Nov-28 07:33N 54°52' E 018°45'9 9.4
2016-Nov-28 06:33N 54°57' E 018°31'47367.1
2016-Nov-27 23:30N 58°13' E 005°29'373172.5
2016-Nov-27 21:20N 55°20' E 015°31'911.3
2016-Nov-27 20:33N 55°22' E 015°16'1111.2
2016-Nov-27 19:33N 55°23' E 014°57'1110.7
2016-Nov-27 18:32N 55°22' E 014°37'10 9.9
2016-Nov-27 17:33N 55°14' E 014°27'1010.1
2016-Nov-27 16:33N 55°09' E 014°11'361364.2
2016-Nov-27 15:33N 58°60' E 005°40'0 0.0
2016-Nov-27 14:33N 58°60' E 005°40'329276.9
2016-Nov-27 13:21N 55°14' E 013°00'1012.9
2016-Nov-27 12:33N 55°17' E 012°43'1111.4
2016-Nov-27 11:33N 55°28' E 012°41'1111.4
2016-Nov-27 10:34N 55°39' E 012°41'1413.7
2016-Nov-27 09:33N 55°53' E 012°39'1313.4
2016-Nov-27 08:33N 56°06' E 012°33'282272.8
2016-Nov-27 07:32N 58°60' E 005°40'0 0.0
2016-Nov-27 06:32N 58°60' E 005°40'0 0.0
2016-Nov-27 05:32N 58°60' E 005°40'0 0.0
2016-Nov-27 04:32N 58°60' E 005°40'0 0.0
2016-Nov-27 03:33N 58°60' E 005°40'208210.2
2016-Nov-27 02:33N 57°21' E 011°27'1414.4
2016-Nov-27 01:33N 57°33' E 011°12'1514.7
2016-Nov-27 00:33N 57°43' E 010°52'1514.5
2016-Nov-26 23:33N 57°46' E 010°25'166156.9
2016-Nov-26 22:30N 58°60' E 005°40'0 0.0
2016-Nov-26 21:33N 58°60' E 005°40'0 0.0
2016-Nov-26 20:32N 58°60' E 005°40'0 0.0
2016-Nov-26 19:30N 58°60' E 005°40'0 0.0
2016-Nov-26 18:33N 58°60' E 005°40'0 0.0
2016-Nov-26 17:33N 58°60' E 005°40'0 0.0
2016-Nov-26 16:31N 58°60' E 005°40'0 0.0
2016-Nov-26 15:30N 58°60' E 005°40'7982.3
2016-Nov-26 14:33N 57°45' E 006°30'7970.5
2016-Nov-26 13:25N 58°60' E 005°40'0 0.0
2016-Nov-26 12:32N 58°60' E 005°40'0 0.0
2016-Nov-26 11:30N 58°60' E 005°40'0 0.0
2016-Nov-26 10:34N 58°60' E 005°40'2827.6
2016-Nov-26 09:33N 58°36' E 005°15'1514.5
2016-Nov-26 08:34N 58°50' E 005°17'1413.8
2016-Nov-26 07:33N 59°04' E 005°19'8 8.5
2016-Nov-26 06:33N 59°03' E 005°35'4 3.9
2016-Nov-26 05:33N 58°60' E 005°40'0 0.0
2016-Nov-26 04:33N 58°60' E 005°40'0 0.0
2016-Nov-26 03:33N 58°60' E 005°40'0 0.0
2016-Nov-26 02:33N 58°60' E 005°40'0 0.0
2016-Nov-26 01:33N 58°60' E 005°40'0 0.0
2016-Nov-26 00:32N 58°60' E 005°40'0 0.0
2016-Nov-25 23:32N 58°60' E 005°40'0 0.0
2016-Nov-25 22:33N 58°60' E 005°40'0 0.0
2016-Nov-25 21:32N 58°60' E 005°40'0 0.0
2016-Nov-25 20:31N 58°60' E 005°40'0 0.0
2016-Nov-25 19:32N 58°60' E 005°40'0 0.0
2016-Nov-25 18:33N 58°60' E 005°40'0 0.0
2016-Nov-25 17:32N 58°60' E 005°40'  
Track history (hours):
 
Tides and Currents Weather Stations Pressure Air Temp Water Temp Dewpoint Dewpoint Depression Visibility Wind Speed Wind Dir Waves Ship Positions

Tracer

Last reported at 2016-Dec-05 16:27 UTC. Time now 2016-Dec-06 08:19 UTC.
Position N 49°51' W 003°18'.

Length 101 m; beam 20 m.

Type: Cargo ship. MMSI: 245949000.

Date/timePositionNaut miles runAvg speedWind from/ knotsBaromVisibWave heightAir tempDewpointWater temp
2016-Dec-05 16:27N 49°51' W 003°18'1415.5
2016-Dec-05 15:33N 49°58' W 002°59'4713.8
2016-Dec-05 12:08N 50°10' W 001°48'711.7
2016-Dec-05 11:33N 50°13' W 001°38'5713.2
2016-Dec-05 07:15N 50°28' W 000°12'1115.4
2016-Dec-05 06:33N 50°31' E 000°04'5714.0
2016-Dec-05 02:28N 50°58' E 001°23'1213.2
2016-Dec-05 01:33N 51°07' E 001°37'1414.1
2016-Dec-05 00:33N 51°17' E 001°51'1111.2
2016-Dec-04 23:33N 51°22' E 002°08'1514.6
2016-Dec-04 22:33N 51°23' E 002°31'1414.4
2016-Dec-04 21:33N 51°25' E 002°54'1615.9
2016-Dec-04 20:33N 51°24' E 003°19'1413.9
2016-Dec-04 19:33N 51°24' E 003°42'1312.5
2016-Dec-04 18:33N 51°25' E 004°02'1110.4
2016-Dec-04 17:33N 51°20' E 004°16'4 4.1
2016-Dec-04 16:33N 51°17' E 004°20'1 1.1
2016-Dec-04 15:33N 51°17' E 004°22'1 0.6
2016-Dec-04 14:32N 51°17' E 004°23'0 0.0
2016-Dec-04 13:32N 51°17' E 004°23'0 0.0
2016-Dec-04 12:29N 51°17' E 004°23'0 0.0
2016-Dec-04 11:17N 51°17' E 004°23'0 0.0
2016-Dec-04 10:29N 51°17' E 004°23'0 0.0
2016-Dec-04 09:29N 51°17' E 004°23'0 0.0
2016-Dec-04 08:32N 51°17' E 004°23'0 0.0
2016-Dec-04 07:32N 51°17' E 004°23'0 0.0
2016-Dec-04 06:32N 51°17' E 004°23'0 0.0
2016-Dec-04 05:29N 51°17' E 004°23'0 0.0
2016-Dec-04 04:32N 51°17' E 004°23'0 0.0
2016-Dec-04 03:32N 51°17' E 004°23'0 0.0
2016-Dec-04 02:32N 51°17' E 004°23'0 0.0
2016-Dec-04 01:26N 51°17' E 004°23'0 0.0
2016-Dec-04 00:32N 51°17' E 004°23'0 0.0
2016-Dec-03 23:29N 51°17' E 004°23'0 0.0
2016-Dec-03 22:08N 51°17' E 004°23'0 0.0
2016-Dec-03 21:29N 51°17' E 004°23'0 0.0
2016-Dec-03 20:32N 51°17' E 004°23'0 0.0
2016-Dec-03 19:32N 51°17' E 004°23'0 0.0
2016-Dec-03 18:32N 51°17' E 004°23'0 0.0
2016-Dec-03 17:32N 51°17' E 004°23'0 0.4
2016-Dec-03 16:32N 51°17' E 004°22'0 0.0
2016-Dec-03 15:32N 51°17' E 004°22'0 0.0
2016-Dec-03 14:32N 51°17' E 004°22'0 0.0
2016-Dec-03 13:32N 51°17' E 004°22'0 0.0
2016-Dec-03 12:29N 51°17' E 004°22'0 0.0
2016-Dec-03 11:32N 51°17' E 004°22'0 0.0
2016-Dec-03 10:23N 51°17' E 004°22'0 0.0
2016-Dec-03 09:32N 51°17' E 004°22'2 2.0
2016-Dec-03 08:33N 51°18' E 004°20'3 2.9
2016-Dec-03 07:33N 51°21' E 004°17'0 0.1
2016-Dec-03 06:33N 51°21' E 004°17'5 5.0
2016-Dec-03 05:31N 51°23' E 004°10'8 8.6
2016-Dec-03 04:33N 51°23' E 003°56'1111.5
2016-Dec-03 03:33N 51°25' E 003°38'1110.9
2016-Dec-03 02:34N 51°32' E 003°25'17 4.1
2016-Dec-02 22:24N 51°48' E 003°14'23511.8
2016-Dec-02 02:26N 53°53' E 008°43'910.4
2016-Dec-02 01:33N 53°51' E 008°58'7 6.8
2016-Dec-02 00:33N 53°54' E 009°09'2 1.5
2016-Dec-01 23:33N 53°55' E 009°11'8 8.2
2016-Dec-01 22:33N 54°02' E 009°18'28 5.4
2016-Dec-01 17:17N 54°22' E 009°52'5 7.2
2016-Dec-01 16:33N 54°22' E 010°01'4 4.1
2016-Dec-01 15:33N 54°22' E 010°08'1 1.1
2016-Dec-01 14:33N 54°22' E 010°10'7 7.2
2016-Dec-01 13:33N 54°29' E 010°16'1110.6
2016-Dec-01 12:31N 54°34' E 010°33'1212.5
2016-Dec-01 11:34N 54°35' E 010°53'1111.3
2016-Dec-01 10:34N 54°35' E 011°13'1010.3
2016-Dec-01 09:33N 54°31' E 011°29'1111.1
2016-Dec-01 08:33N 54°26' E 011°46'1110.9
2016-Dec-01 07:32N 54°27' E 012°06'1411.3
2016-Dec-01 06:17N 54°39' E 012°19'911.9
2016-Dec-01 05:33N 54°43' E 012°31'19411.4
2016-Nov-30 12:34N 54°55' E 018°07'1010.1
2016-Nov-30 11:33N 54°55' E 018°25'9 9.3
2016-Nov-30 10:33N 54°53' E 018°40'10 9.6
2016-Nov-30 09:33N 54°48' E 018°54'1010.2
2016-Nov-30 08:33N 54°37' E 018°56'1414.2
2016-Nov-30 07:33N 54°26' E 018°40'2 2.0
2016-Nov-30 06:32N 54°24' E 018°40'0 0.0
2016-Nov-30 05:32N 54°24' E 018°40'0 0.0
2016-Nov-30 04:32N 54°24' E 018°40'0 0.0
2016-Nov-30 03:32N 54°24' E 018°40'0 0.0
2016-Nov-30 02:32N 54°24' E 018°40'0 0.0
2016-Nov-30 01:32N 54°24' E 018°40'0 0.0
2016-Nov-30 00:31N 54°24' E 018°40'0 0.0
2016-Nov-29 23:31N 54°24' E 018°40'0 0.0
2016-Nov-29 22:31N 54°24' E 018°40'0 0.0
2016-Nov-29 21:28N 54°24' E 018°40'0 0.0
2016-Nov-29 20:31N 54°24' E 018°40'0 0.0
2016-Nov-29 19:31N 54°24' E 018°40'0 0.0
2016-Nov-29 18:31N 54°24' E 018°40'0 0.0
2016-Nov-29 17:28N 54°24' E 018°40'0 0.0
2016-Nov-29 16:31N 54°24' E 018°40'0 0.0
2016-Nov-29 15:31N 54°24' E 018°40'0 0.0
2016-Nov-29 14:31N 54°24' E 018°40'0 0.0
2016-Nov-29 13:31N 54°24' E 018°40'0 0.0
2016-Nov-29 12:31N 54°24' E 018°40'0 0.0
2016-Nov-29 11:31N 54°24' E 018°40'0 0.0
2016-Nov-29 10:31N 54°24' E 018°40'0 0.0
2016-Nov-29 09:31N 54°24' E 018°40'0 0.0
2016-Nov-29 08:31N 54°24' E 018°40'0 0.0
2016-Nov-29 07:31N 54°24' E 018°40'0 0.0
2016-Nov-29 06:31N 54°24' E 018°40'0 0.0
2016-Nov-29 05:31N 54°24' E 018°40'0 0.3
2016-Nov-29 04:33N 54°25' E 018°40'9 9.5
2016-Nov-29 03:33N 54°33' E 018°49'1313.3
2016-Nov-29 02:33N 54°44' E 019°00'4 3.6
2016-Nov-29 01:33N 54°47' E 019°04'0 0.1
2016-Nov-29 00:33N 54°47' E 019°04'0 0.3
2016-Nov-28 23:33N 54°47' E 019°04'1 1.5
2016-Nov-28 22:32N 54°48' E 019°02'1 1.2
2016-Nov-28 21:33N 54°49' E 019°00'1 0.8
2016-Nov-28 20:33N 54°48' E 019°00'2 2.4
2016-Nov-28 19:33N 54°49' E 019°04'3 2.3
2016-Nov-28 18:24N 54°50' E 019°08'1 1.3
2016-Nov-28 17:33N 54°51' E 019°07'2 1.2
2016-Nov-28 16:17N 54°52' E 019°04'1 1.3
2016-Nov-28 15:13N 54°51' E 019°02'1 1.3
2016-Nov-28 14:31N 54°51' E 019°00'1 1.1
2016-Nov-28 13:33N 54°50' E 019°01'0 0.5
2016-Nov-28 12:33N 54°49' E 019°00'1 0.7
2016-Nov-28 11:33N 54°50' E 018°60'1 0.7
2016-Nov-28 10:33N 54°50' E 018°59'1 0.7
2016-Nov-28 09:33N 54°50' E 018°58'1 1.0
2016-Nov-28 08:33N 54°51' E 018°57'7 6.8
2016-Nov-28 07:33N 54°52' E 018°45'9 9.4
2016-Nov-28 06:33N 54°57' E 018°31'47367.1
2016-Nov-27 23:30N 58°13' E 005°29'373172.5
2016-Nov-27 21:20N 55°20' E 015°31'911.3
2016-Nov-27 20:33N 55°22' E 015°16'1111.2
2016-Nov-27 19:33N 55°23' E 014°57'1110.7
2016-Nov-27 18:32N 55°22' E 014°37'10 9.9
2016-Nov-27 17:33N 55°14' E 014°27'1010.1
2016-Nov-27 16:33N 55°09' E 014°11'361364.2
2016-Nov-27 15:33N 58°60' E 005°40'0 0.0
2016-Nov-27 14:33N 58°60' E 005°40'329276.9
2016-Nov-27 13:21N 55°14' E 013°00'1012.9
2016-Nov-27 12:33N 55°17' E 012°43'1111.4
2016-Nov-27 11:33N 55°28' E 012°41'1111.4
2016-Nov-27 10:34N 55°39' E 012°41'1413.7
2016-Nov-27 09:33N 55°53' E 012°39'1313.4
2016-Nov-27 08:33N 56°06' E 012°33'282272.8
2016-Nov-27 07:32N 58°60' E 005°40'0 0.0
2016-Nov-27 06:32N 58°60' E 005°40'0 0.0
2016-Nov-27 05:32N 58°60' E 005°40'0 0.0
2016-Nov-27 04:32N 58°60' E 005°40'0 0.0
2016-Nov-27 03:33N 58°60' E 005°40'208210.2
2016-Nov-27 02:33N 57°21' E 011°27'1414.4
2016-Nov-27 01:33N 57°33' E 011°12'1514.7
2016-Nov-27 00:33N 57°43' E 010°52'1514.5
2016-Nov-26 23:33N 57°46' E 010°25'166156.9
2016-Nov-26 22:30N 58°60' E 005°40'0 0.0
2016-Nov-26 21:33N 58°60' E 005°40'0 0.0
2016-Nov-26 20:32N 58°60' E 005°40'0 0.0
2016-Nov-26 19:30N 58°60' E 005°40'0 0.0
2016-Nov-26 18:33N 58°60' E 005°40'0 0.0
2016-Nov-26 17:33N 58°60' E 005°40'0 0.0
2016-Nov-26 16:31N 58°60' E 005°40'0 0.0
2016-Nov-26 15:30N 58°60' E 005°40'7982.3
2016-Nov-26 14:33N 57°45' E 006°30'7970.5
2016-Nov-26 13:25N 58°60' E 005°40'0 0.0
2016-Nov-26 12:32N 58°60' E 005°40'0 0.0
2016-Nov-26 11:30N 58°60' E 005°40'0 0.0
2016-Nov-26 10:34N 58°60' E 005°40'2827.6
2016-Nov-26 09:33N 58°36' E 005°15'1514.5
2016-Nov-26 08:34N 58°50' E 005°17'1413.8
2016-Nov-26 07:33N 59°04' E 005°19'8 8.5
2016-Nov-26 06:33N 59°03' E 005°35'4 3.9
2016-Nov-26 05:33N 58°60' E 005°40'0 0.0
2016-Nov-26 04:33N 58°60' E 005°40'0 0.0
2016-Nov-26 03:33N 58°60' E 005°40'0 0.0
2016-Nov-26 02:33N 58°60' E 005°40'0 0.0
2016-Nov-26 01:33N 58°60' E 005°40'0 0.0
2016-Nov-26 00:32N 58°60' E 005°40'0 0.0
2016-Nov-25 23:32N 58°60' E 005°40'0 0.0
2016-Nov-25 22:33N 58°60' E 005°40'0 0.0
2016-Nov-25 21:32N 58°60' E 005°40'0 0.0
2016-Nov-25 20:31N 58°60' E 005°40'0 0.0
2016-Nov-25 19:32N 58°60' E 005°40'0 0.0
2016-Nov-25 18:33N 58°60' E 005°40'0 0.0
2016-Nov-25 17:32N 58°60' E 005°40'  

Dump ship's entire track history